Time;durP1;ratioP1;P1;durP2;ratioP2;P2;SDS_P1;SDS_P2;PMS_P1;PMS_P2;Temp;Humidity;BMP_temperature;BMP_pressure;BME280_temperature;BME280_humidity;BME280_pressure;Samples;Min_cycle;Max_cycle;Signal;HPM_P1;HPM_P2
2022/07/24 00:00:57;;;;;;;14.10;10.43;;;;;;;17.87;75.61;101985.81;5041283;28;20385;-73
2022/07/24 00:03:23;;;;;;;17.57;10.27;;;;;;;17.87;76.55;101985.81;5029855;28;20439;-73
2022/07/24 00:05:48;;;;;;;14.00;11.00;;;;;;;17.92;76.33;101988.78;5031863;28;20821;-75
2022/07/24 00:08:13;;;;;;;21.27;12.27;;;;;;;17.85;76.01;102003.75;5046208;28;20030;-74
2022/07/24 00:10:38;;;;;;;22.23;15.60;;;;;;;18.09;76.73;101997.50;5043397;28;20033;-74
2022/07/24 00:13:04;;;;;;;30.90;16.30;;;;;;;18.17;76.96;101994.47;5051780;28;20396;-73
2022/07/24 00:15:30;;;;;;;26.63;14.73;;;;;;;18.14;75.77;102000.47;5038128;28;20040;-74
2022/07/24 00:17:56;;;;;;;25.52;16.17;;;;;;;18.12;76.01;101992.38;5050607;28;20025;-73
2022/07/24 00:20:22;;;;;;;21.50;14.50;;;;;;;18.10;76.37;101988.13;5045485;28;20518;-73
2022/07/24 00:22:48;;;;;;;22.37;15.37;;;;;;;18.05;76.19;101983.22;5042676;28;20029;-73
2022/07/24 00:25:14;;;;;;;23.77;14.40;;;;;;;17.98;76.14;101984.31;5030462;28;20029;-75
2022/07/24 00:27:39;;;;;;;24.20;15.53;;;;;;;17.90;75.62;101990.09;5044491;28;20033;-74
2022/07/24 00:30:05;;;;;;;22.40;14.47;;;;;;;17.81;77.29;101996.91;5050810;28;20108;-75
2022/07/24 00:32:30;;;;;;;25.42;15.32;;;;;;;17.80;77.92;101987.78;5036529;28;20065;-74
2022/07/24 00:34:55;;;;;;;22.73;15.60;;;;;;;17.83;77.02;101989.25;5034093;28;20037;-74
2022/07/24 00:37:21;;;;;;;27.20;16.37;;;;;;;17.84;77.89;101989.03;5034762;28;20485;-73
2022/07/24 00:39:47;;;;;;;24.53;15.37;;;;;;;17.76;78.46;101991.19;5036978;28;20077;-73
2022/07/24 00:42:12;;;;;;;24.98;15.38;;;;;;;17.78;78.94;101994.59;5035551;28;20025;-74
2022/07/24 00:44:38;;;;;;;39.60;16.87;;;;;;;17.74;77.58;101987.78;5037275;28;20079;-74
2022/07/24 00:47:04;;;;;;;23.87;16.40;;;;;;;17.69;79.25;101985.66;5035281;28;20033;-75
2022/07/24 00:49:30;;;;;;;;;;;;;;;17.59;78.93;101998.25;5032085;28;20032;-75
2022/07/24 00:51:55;;;;;;;21.92;15.55;;;;;;;17.61;79.49;101985.03;5048749;28;20279;-73
2022/07/24 00:54:22;;;;;;;27.33;16.50;;;;;;;17.65;78.67;101984.38;5035645;28;20051;-73
2022/07/24 00:56:50;;;;;;;22.17;14.65;;;;;;;17.60;78.66;101986.13;5031161;28;20037;-73
2022/07/24 00:59:16;;;;;;;25.45;16.88;;;;;;;17.58;78.14;101989.09;5029074;28;21596;-73
2022/07/24 01:01:42;;;;;;;27.17;16.52;;;;;;;17.57;79.06;101981.00;5034655;28;20068;-72
2022/07/24 01:04:08;;;;;;;25.97;16.80;;;;;;;17.56;79.29;101988.44;5048918;28;20459;-70
2022/07/24 01:06:33;;;;;;;22.67;15.43;;;;;;;17.52;79.33;101992.72;5049308;28;20060;-72
2022/07/24 01:08:59;;;;;;;22.33;15.87;;;;;;;17.54;80.52;101996.13;5049302;28;20069;-71
2022/07/24 01:11:25;;;;;;;25.70;16.87;;;;;;;17.50;80.64;101992.06;5030824;28;20037;-71
2022/07/24 01:13:51;;;;;;;23.58;16.27;;;;;;;17.53;80.79;101990.78;5051084;28;20535;-70
2022/07/24 01:16:17;;;;;;;29.63;16.10;;;;;;;17.46;79.76;101984.41;5045247;28;20109;-69
2022/07/24 01:18:42;;;;;;;21.57;16.50;;;;;;;17.46;80.40;101987.19;5046270;28;20037;-69
2022/07/24 01:21:08;;;;;;;27.80;17.57;;;;;;;17.44;80.16;101981.00;5040786;28;20029;-71
2022/07/24 01:23:34;;;;;;;27.87;17.23;;;;;;;17.54;80.88;101985.03;5044641;28;20045;-70
2022/07/24 01:25:59;;;;;;;28.98;17.98;;;;;;;17.50;80.58;101980.16;5028999;28;20032;-71
2022/07/24 01:28:25;;;;;;;26.37;18.63;;;;;;;17.51;81.97;101966.06;5029838;28;20124;-71
2022/07/24 01:30:50;;;;;;;32.43;18.93;;;;;;;17.72;80.78;101959.44;5035524;28;20029;-71
2022/07/24 01:33:16;;;;;;;32.00;19.07;;;;;;;17.64;80.95;101960.50;5032945;28;20041;-69
2022/07/24 01:35:42;;;;;;;30.47;18.83;;;;;;;17.63;81.41;101961.59;5033077;28;20476;-71
2022/07/24 01:38:09;;;;;;;38.43;20.03;;;;;;;17.62;81.49;101967.34;5046581;28;20033;-70
2022/07/24 01:40:34;;;;;;;31.58;18.55;;;;;;;17.61;81.13;101969.25;5029677;28;20293;-70
2022/07/24 01:43:00;;;;;;;25.07;18.17;;;;;;;17.70;81.22;101964.31;5029872;28;20069;-70
2022/07/24 01:45:25;;;;;;;28.30;19.20;;;;;;;17.73;80.77;101969.44;5038676;28;20105;-70
2022/07/24 01:47:51;;;;;;;32.40;18.50;;;;;;;17.74;81.02;101963.69;5037997;28;20047;-70
2022/07/24 01:50:16;;;;;;;32.13;17.43;;;;;;;17.76;80.97;101960.72;5036840;28;20036;-72
2022/07/24 01:52:42;;;;;;;29.57;18.03;;;;;;;17.91;80.58;101969.59;5043684;28;20124;-72
2022/07/24 01:55:08;;;;;;;23.57;17.17;;;;;;;17.87;79.92;101962.81;5043938;28;20029;-70
2022/07/24 01:57:34;;;;;;;29.38;17.17;;;;;;;17.85;81.21;101951.06;5043823;28;20374;-70
2022/07/24 02:00:00;;;;;;;29.83;16.80;;;;;;;17.96;80.39;101962.34;5040765;28;20075;-71
2022/07/24 02:02:27;;;;;;;24.58;16.60;;;;;;;17.87;80.42;101957.25;5032336;28;20396;-71
2022/07/24 02:04:53;;;;;;;27.05;16.15;;;;;;;18.02;79.89;101946.75;5049289;28;20124;-71
2022/07/24 02:07:18;;;;;;;32.17;16.42;;;;;;;18.02;79.56;101950.38;5040447;28;20052;-73
2022/07/24 02:09:44;;;;;;;24.77;15.17;;;;;;;17.93;78.97;101953.63;5038729;28;20041;-71
2022/07/24 02:12:09;;;;;;;28.10;14.30;;;;;;;17.83;79.25;101951.28;5030412;28;20040;-71
2022/07/24 02:14:35;;;;;;;31.13;14.53;;;;;;;17.83;79.73;101956.00;5029996;28;20477;-71
2022/07/24 02:17:00;;;;;;;24.27;13.80;;;;;;;17.83;80.22;101962.38;5030592;28;20422;-71
2022/07/24 02:19:26;;;;;;;26.83;13.70;;;;;;;17.86;79.82;101950.84;5029467;28;20075;-71
2022/07/24 02:21:51;;;;;;;20.63;12.33;;;;;;;17.86;79.63;101947.22;5030154;28;20111;-71
2022/07/24 02:24:16;;;;;;;28.13;12.20;;;;;;;18.07;78.53;101949.72;5033555;28;20036;-72
2022/07/24 02:26:42;;;;;;;22.93;12.43;;;;;;;18.04;78.92;101958.47;5037575;28;20040;-71
2022/07/24 02:29:07;;;;;;;24.03;11.33;;;;;;;18.05;78.37;101938.00;5033849;28;20108;-72
2022/07/24 02:31:32;;;;;;;18.33;10.50;;;;;;;18.06;78.35;101939.69;5036165;28;20576;-71
2022/07/24 02:33:58;;;;;;;16.07;10.60;;;;;;;18.00;78.19;101940.56;5046621;28;20127;-69
2022/07/24 02:36:23;;;;;;;20.33;9.87;;;;;;;17.94;78.21;101936.75;5038793;28;20040;-70
2022/07/24 02:38:48;;;;;;;16.63;10.23;;;;;;;17.85;79.00;101939.97;5040708;28;20281;-70
2022/07/24 02:41:14;;;;;;;17.13;9.97;;;;;;;17.78;78.63;101939.16;5041819;28;20040;-70
2022/07/24 02:43:39;;;;;;;16.83;10.37;;;;;;;17.69;79.49;101946.00;5029277;28;20032;-73
2022/07/24 02:46:04;;;;;;;23.50;12.13;;;;;;;17.73;78.63;101938.97;5029054;28;20037;-70
2022/07/24 02:48:30;;;;;;;17.97;10.20;;;;;;;17.72;78.90;101938.09;5043294;28;20108;-70
2022/07/24 02:50:55;;;;;;;19.27;9.73;;;;;;;17.70;78.58;101940.25;5047774;28;20029;-70
2022/07/24 02:53:20;;;;;;;22.73;10.10;;;;;;;17.65;78.98;101936.41;5040520;28;20144;-72
2022/07/24 02:55:46;;;;;;;17.37;10.00;;;;;;;17.73;78.47;101931.50;5033554;28;20037;-70
2022/07/24 02:58:11;;;;;;;18.83;10.20;;;;;;;17.72;78.33;101931.72;5043009;28;20396;-72
2022/07/24 03:00:36;;;;;;;12.50;8.67;;;;;;;17.74;78.13;101921.25;5037064;28;20025;-72
2022/07/24 03:03:02;;;;;;;15.33;8.67;;;;;;;17.70;78.46;101936.59;5028586;28;20036;-70
2022/07/24 03:05:27;;;;;;;16.23;8.33;;;;;;;17.60;78.60;101930.69;5028932;28;20026;-70
2022/07/24 03:07:53;;;;;;;19.93;8.63;;;;;;;17.59;78.01;101929.81;5044297;28;20056;-69
2022/07/24 03:10:18;;;;;;;18.57;9.00;;;;;;;17.62;78.82;101934.09;5036103;28;20112;-70
2022/07/24 03:12:43;;;;;;;13.77;7.97;;;;;;;17.55;78.32;101924.94;5028367;28;20037;-71
2022/07/24 03:15:10;;;;;;;17.10;8.50;;;;;;;17.62;78.12;101928.53;5027674;28;20033;-72
2022/07/24 03:17:36;;;;;;;;;;;;;;;17.63;77.90;101924.69;5043885;28;20025;-74
2022/07/24 03:20:02;;;;;;;16.15;8.43;;;;;;;17.59;77.76;101920.66;5040275;28;19966;-71
2022/07/24 03:22:27;;;;;;;17.95;7.65;;;;;;;17.55;77.93;101911.91;5032371;28;20045;-70
2022/07/24 03:24:53;;;;;;;20.80;8.73;;;;;;;17.53;77.80;101910.44;5031995;28;20385;-71
2022/07/24 03:27:18;;;;;;;16.13;7.70;;;;;;;17.51;77.51;101899.56;5034573;28;20041;-71
2022/07/24 03:29:43;;;;;;;13.37;8.03;;;;;;;17.51;77.66;101899.56;5031925;28;20033;-72
2022/07/24 03:32:09;;;;;;;18.33;7.00;;;;;;;17.52;77.13;101897.66;5033181;28;20075;-72
2022/07/24 03:34:34;;;;;;;14.33;7.07;;;;;;;17.46;77.25;101893.81;5032219;28;20079;-71
2022/07/24 03:36:59;;;;;;;15.27;7.00;;;;;;;17.40;77.22;101902.16;5032379;28;20083;-72
2022/07/24 03:39:25;;;;;;;13.60;7.33;;;;;;;17.38;77.05;101894.06;5034158;28;20100;-70
2022/07/24 03:41:50;;;;;;;13.57;6.30;;;;;;;17.41;76.46;101893.66;5030592;28;20021;-71
2022/07/24 03:44:15;;;;;;;12.70;6.00;;;;;;;17.29;77.27;101895.31;5032751;28;20101;-70
2022/07/24 03:46:41;;;;;;;9.60;6.43;;;;;;;17.29;77.43;101894.47;5031578;28;20291;-70
2022/07/24 03:49:06;;;;;;;10.13;7.10;;;;;;;17.42;76.71;101900.03;5034952;28;20021;-72
2022/07/24 03:51:31;;;;;;;15.23;6.67;;;;;;;17.31;76.97;101906.19;5042364;28;20061;-71
2022/07/24 03:53:57;;;;;;;10.40;5.63;;;;;;;17.23;77.64;101911.97;5032751;28;20025;-70
2022/07/24 03:56:22;;;;;;;8.30;5.87;;;;;;;17.36;76.68;101920.25;5031645;28;20033;-72
2022/07/24 03:58:47;;;;;;;11.70;6.87;;;;;;;17.38;76.27;101913.44;5029782;28;20087;-70
2022/07/24 04:01:13;;;;;;;16.17;7.93;;;;;;;17.34;76.52;101914.91;5044461;28;20091;-70
2022/07/24 04:03:38;;;;;;;14.87;7.67;;;;;;;17.44;75.89;101914.53;5031454;28;20034;-70
2022/07/24 04:06:05;;;;;;;8.43;6.43;;;;;;;17.37;75.97;101917.25;5032091;28;20036;-70
2022/07/24 04:08:30;;;;;;;14.55;7.20;;;;;;;17.30;76.36;101915.56;5031249;28;20127;-74
2022/07/24 04:10:59;;;;;;;14.27;6.70;;;;;;;17.27;76.07;101910.44;5047950;28;20072;-72
2022/07/24 04:13:25;;;;;;;13.68;6.15;;;;;;;17.40;75.27;101914.06;5050969;28;20041;-70
2022/07/24 04:15:51;;;;;;;13.77;6.45;;;;;;;17.42;75.26;101916.63;5048953;28;20024;-70
2022/07/24 04:18:16;;;;;;;11.57;5.93;;;;;;;17.31;75.59;101907.06;5049575;28;20033;-71
2022/07/24 04:20:42;;;;;;;10.83;6.47;;;;;;;17.30;75.74;101910.84;5034442;28;20017;-71
2022/07/24 04:23:07;;;;;;;14.33;6.53;;;;;;;17.30;75.61;101894.25;5051052;28;20048;-70
2022/07/24 04:25:34;;;;;;;10.00;6.13;;;;;;;17.25;75.58;101905.16;5036885;28;20109;-70
2022/07/24 04:27:59;;;;;;;10.27;6.70;;;;;;;17.16;76.28;101891.72;5032298;28;20029;-71
2022/07/24 04:30:25;;;;;;;8.97;6.03;;;;;;;17.10;76.83;101898.13;5034489;28;20044;-71
2022/07/24 04:32:50;;;;;;;15.37;6.57;;;;;;;17.03;76.71;101900.03;5038292;28;20400;-70
2022/07/24 04:35:15;;;;;;;16.13;6.67;;;;;;;17.00;77.50;101900.47;5030326;28;20478;-70
2022/07/24 04:37:41;;;;;;;14.37;6.60;;;;;;;16.99;77.77;101893.22;5045070;28;20044;-70
2022/07/24 04:40:07;;;;;;;11.33;6.73;;;;;;;17.03;77.25;101903.66;5033558;28;20044;-70
2022/07/24 04:42:32;;;;;;;15.67;7.13;;;;;;;17.05;77.67;101901.53;5031327;28;20091;-71
2022/07/24 04:44:57;;;;;;;12.23;6.53;;;;;;;17.10;77.33;101898.13;5043125;28;20780;-70
2022/07/24 04:47:22;;;;;;;14.53;7.53;;;;;;;17.23;77.52;101898.94;5032176;28;20044;-72
2022/07/24 04:49:48;;;;;;;14.03;7.70;;;;;;;17.38;76.95;101898.72;5041729;28;20444;-69
2022/07/24 04:52:13;;;;;;;16.73;7.93;;;;;;;17.28;77.09;101903.88;5035200;28;20617;-71
2022/07/24 04:54:38;;;;;;;10.43;7.53;;;;;;;17.25;76.80;101898.75;5031734;28;20114;-69
2022/07/24 04:57:04;;;;;;;14.40;8.23;;;;;;;17.49;76.70;101914.69;5032982;28;20077;-72
2022/07/24 04:59:29;;;;;;;10.93;7.47;;;;;;;17.57;76.15;101914.47;5049843;28;20060;-70
2022/07/24 05:01:55;;;;;;;12.07;7.60;;;;;;;17.61;76.24;101913.00;5042064;28;20775;-71
2022/07/24 05:04:20;;;;;;;12.77;7.67;;;;;;;17.62;76.13;101909.97;5031030;28;20519;-70
2022/07/24 05:06:46;;;;;;;12.33;6.60;;;;;;;17.60;75.92;101919.59;5031272;28;20393;-69
2022/07/24 05:09:11;;;;;;;11.90;6.50;;;;;;;17.70;75.93;101908.88;5036852;28;20025;-70
2022/07/24 05:11:37;;;;;;;11.30;6.93;;;;;;;17.79;75.17;101911.22;5032780;28;20477;-70
2022/07/24 05:14:02;;;;;;;9.67;6.37;;;;;;;17.78;75.92;101914.22;5031281;28;20055;-70
2022/07/24 05:16:27;;;;;;;10.20;6.67;;;;;;;17.83;76.57;101911.63;5033879;28;20026;-71
2022/07/24 05:18:52;;;;;;;12.53;6.43;;;;;;;17.87;76.56;101910.97;5031147;28;20039;-71
2022/07/24 05:21:18;;;;;;;15.30;7.77;;;;;;;18.08;76.16;101918.16;5035916;28;20339;-71
2022/07/24 05:23:43;;;;;;;13.00;8.47;;;;;;;18.16;76.36;101920.66;5049752;28;20041;-70
2022/07/24 05:26:09;;;;;;;19.27;8.73;;;;;;;18.31;76.26;101908.19;5041815;28;20055;-71
2022/07/24 05:28:34;;;;;;;14.57;10.03;;;;;;;19.11;74.46;101916.63;5029831;28;20078;-71
2022/07/24 05:30:59;;;;;;;19.07;10.10;;;;;;;20.09;70.00;101910.94;5032934;28;20101;-73
2022/07/24 05:33:25;;;;;;;16.03;9.37;;;;;;;20.99;67.46;101921.84;5031408;28;20060;-71
2022/07/24 05:35:50;;;;;;;14.10;9.43;;;;;;;21.87;62.68;101930.97;5031149;28;20033;-72
2022/07/24 05:38:16;;;;;;;17.00;9.17;;;;;;;22.36;60.62;101928.41;5030825;28;20040;-72
2022/07/24 05:40:41;;;;;;;11.57;8.27;;;;;;;22.99;58.89;101922.69;5031306;28;20432;-71
2022/07/24 05:43:06;;;;;;;9.73;7.00;;;;;;;22.40;58.42;101932.41;5028440;28;20340;-71
2022/07/24 05:45:31;;;;;;;10.40;5.20;;;;;;;21.70;60.99;101933.66;5028625;28;20704;-72
2022/07/24 05:47:57;;;;;;;12.43;6.50;;;;;;;22.01;60.37;101935.19;5046907;28;20044;-71
2022/07/24 05:50:22;;;;;;;9.53;5.83;;;;;;;22.76;58.29;101933.97;5046988;28;20229;-72
2022/07/24 05:52:47;;;;;;;12.17;6.20;;;;;;;22.77;57.02;101939.31;5038640;28;20083;-72
2022/07/24 05:55:13;;;;;;;10.67;5.20;;;;;;;22.13;58.57;101944.38;5047909;28;20535;-72
2022/07/24 05:57:38;;;;;;;8.13;5.83;;;;;;;23.09;56.21;101934.88;5044672;28;20115;-70
2022/07/24 06:00:04;;;;;;;7.83;4.97;;;;;;;23.80;54.86;101931.28;5046132;28;20264;-71
2022/07/24 06:02:30;;;;;;;9.43;5.40;;;;;;;23.96;54.89;101933.22;5033569;28;20029;-71
2022/07/24 06:04:55;;;;;;;8.95;4.95;;;;;;;24.71;51.19;101928.59;5030415;28;20513;-72
2022/07/24 06:07:21;;;;;;;11.37;5.43;;;;;;;24.15;52.66;101938.25;5030251;28;20041;-72
2022/07/24 06:09:46;;;;;;;13.53;6.03;;;;;;;24.78;51.31;101935.69;5040740;28;20099;-71
2022/07/24 06:12:11;;;;;;;5.13;4.60;;;;;;;25.43;49.13;101949.47;5031732;28;20032;-70
2022/07/24 06:14:36;;;;;;;7.73;5.73;;;;;;;25.21;50.00;101937.50;5044849;28;20032;-71
2022/07/24 06:17:02;;;;;;;9.60;5.17;;;;;;;25.67;49.29;101945.19;5032421;28;20473;-72
2022/07/24 06:19:27;;;;;;;8.37;5.40;;;;;;;25.55;48.90;101933.31;5045416;28;20032;-72
2022/07/24 06:21:54;;;;;;;10.37;5.00;;;;;;;26.15;47.02;101939.34;5035440;28;20053;-71
2022/07/24 06:24:19;;;;;;;7.38;4.82;;;;;;;26.26;47.76;101944.72;5029708;28;20733;-72
2022/07/24 06:26:44;;;;;;;8.37;5.20;;;;;;;26.18;47.12;101941.59;5036248;28;20033;-71
2022/07/24 06:29:10;;;;;;;5.33;4.33;;;;;;;26.37;47.00;101940.00;5042216;28;20445;-73
2022/07/24 06:31:35;;;;;;;7.95;4.40;;;;;;;26.76;45.92;101939.31;5036607;28;20028;-71
2022/07/24 06:34:00;;;;;;;6.57;4.87;;;;;;;27.36;44.50;101930.13;5035267;28;20033;-72
2022/07/24 06:36:27;;;;;;;8.77;4.77;;;;;;;26.84;44.61;101940.75;5045021;28;20051;-74
2022/07/24 06:38:52;;;;;;;6.90;4.07;;;;;;;27.15;45.35;101945.28;5035836;28;20289;-73
2022/07/24 06:41:18;;;;;;;5.93;4.40;;;;;;;27.29;43.38;101943.63;5028222;28;20483;-70
2022/07/24 06:43:43;;;;;;;5.77;4.03;;;;;;;27.01;45.01;101949.75;5033078;28;20123;-73
2022/07/24 06:46:08;;;;;;;6.37;4.10;;;;;;;25.59;47.60;101948.50;5034208;28;20610;-73
2022/07/24 06:48:34;;;;;;;6.60;3.80;;;;;;;25.31;50.23;101955.31;5034467;28;20040;-74
2022/07/24 06:50:59;;;;;;;5.65;3.70;;;;;;;26.56;46.55;101942.06;5028766;28;20737;-73
2022/07/24 06:53:24;;;;;;;6.00;4.03;;;;;;;27.12;45.56;101940.22;5028755;28;20064;-73
2022/07/24 06:55:53;;;;;;;6.53;3.10;;;;;;;27.47;45.78;101934.63;5032192;28;20061;-73
2022/07/24 06:58:19;;;;;;;7.05;3.53;;;;;;;27.81;44.30;101947.00;5033000;28;20027;-73
2022/07/24 07:00:44;;;;;;;4.35;3.70;;;;;;;28.06;42.27;101935.66;5031071;28;20033;-72
2022/07/24 07:03:09;;;;;;;7.40;3.13;;;;;;;27.88;43.50;101937.13;5035634;28;20609;-72
2022/07/24 07:05:35;;;;;;;9.03;3.37;;;;;;;26.52;46.51;101942.88;5028595;28;20067;-72
2022/07/24 07:08:00;;;;;;;5.57;2.95;;;;;;;25.60;48.78;101944.59;5027848;28;20026;-73
2022/07/24 07:10:26;;;;;;;5.47;3.07;;;;;;;25.71;47.83;101943.53;5028586;28;20397;-72
2022/07/24 07:12:51;;;;;;;7.18;3.22;;;;;;;25.57;48.21;101942.31;5026924;28;20120;-72
2022/07/24 07:15:16;;;;;;;6.30;3.50;;;;;;;25.05;48.87;101941.25;5027382;28;20445;-72
2022/07/24 07:17:42;;;;;;;7.77;3.50;;;;;;;24.40;51.13;101940.53;5030425;28;20061;-73
2022/07/24 07:20:08;;;;;;;3.57;3.00;;;;;;;24.29;51.54;101942.38;5029442;28;20022;-72
2022/07/24 07:22:34;;;;;;;5.32;3.22;;;;;;;24.37;51.84;101944.69;5035707;28;20029;-72
2022/07/24 07:24:59;;;;;;;4.80;3.47;;;;;;;25.31;50.23;101951.63;5028633;28;20040;-71
2022/07/24 07:27:24;;;;;;;7.37;3.27;;;;;;;25.94;48.51;101951.56;5032279;28;20047;-73
2022/07/24 07:29:50;;;;;;;8.50;3.37;;;;;;;26.22;48.17;101948.34;5027589;28;20037;-73
2022/07/24 07:32:15;;;;;;;8.37;3.43;;;;;;;26.35;47.61;101942.25;5031960;28;20080;-74
2022/07/24 07:34:40;;;;;;;4.53;2.70;;;;;;;26.20;45.70;101933.75;5023030;28;20037;-73
2022/07/24 07:37:05;;;;;;;3.57;2.47;;;;;;;26.31;46.87;101935.47;5026723;28;20105;-72
2022/07/24 07:39:31;;;;;;;4.93;2.70;;;;;;;26.67;45.80;101938.16;5025801;28;20100;-74
2022/07/24 07:41:56;;;;;;;4.23;2.70;;;;;;;26.55;47.19;101948.81;5025425;28;20034;-72
2022/07/24 07:44:22;;;;;;;4.67;2.80;;;;;;;26.98;46.39;101945.53;5026894;28;20089;-73
2022/07/24 07:46:47;;;;;;;4.60;3.20;;;;;;;26.90;46.03;101954.50;5032694;28;20052;-73
2022/07/24 07:49:13;;;;;;;4.07;2.83;;;;;;;26.67;45.42;101952.22;5028334;28;20438;-73
2022/07/24 07:51:38;;;;;;;5.03;3.50;;;;;;;26.23;46.26;101950.91;5026527;28;20112;-74
2022/07/24 07:54:04;;;;;;;6.20;3.40;;;;;;;26.17;47.51;101953.94;5037417;28;20029;-73
2022/07/24 07:56:31;;;;;;;6.03;3.47;;;;;;;26.22;46.44;101948.34;5026125;28;20025;-73
2022/07/24 07:58:56;;;;;;;8.82;2.88;;;;;;;26.09;47.68;101954.47;5026408;28;20075;-73
2022/07/24 08:01:21;;;;;;;4.20;3.13;;;;;;;26.24;47.15;101949.78;5032326;28;20025;-73
2022/07/24 08:03:47;;;;;;;4.83;3.27;;;;;;;26.10;47.44;101934.50;5038221;28;20034;-73
2022/07/24 08:06:12;;;;;;;5.30;2.70;;;;;;;26.33;47.19;101939.69;5035654;28;20477;-74
2022/07/24 08:08:41;;;;;;;3.83;2.50;;;;;;;26.24;45.54;101934.88;5030369;28;20025;-73
2022/07/24 08:11:06;;;;;;;4.18;2.67;;;;;;;26.15;45.60;101931.72;5035649;28;20064;-73
2022/07/24 08:13:31;;;;;;;4.97;2.10;;;;;;;26.37;45.70;101928.75;5034308;28;20143;-73
2022/07/24 08:15:57;;;;;;;2.40;2.20;;;;;;;26.66;45.12;101918.75;5031154;28;20049;-74
2022/07/24 08:18:22;;;;;;;3.67;2.38;;;;;;;26.58;46.07;101922.94;5043536;28;20661;-73
2022/07/24 08:20:48;;;;;;;3.40;2.17;;;;;;;26.59;45.62;101924.66;5031422;28;20076;-73
2022/07/24 08:23:13;;;;;;;10.80;2.47;;;;;;;26.49;45.59;101920.91;5045613;28;20025;-71
2022/07/24 08:25:38;;;;;;;3.33;1.70;;;;;;;26.78;45.15;101919.34;5051044;28;20446;-70
2022/07/24 08:28:04;;;;;;;2.50;2.30;;;;;;;26.76;44.69;101911.19;5039690;28;20060;-70
2022/07/24 08:30:29;;;;;;;3.77;1.97;;;;;;;26.76;43.94;101914.00;5036194;28;20029;-71
2022/07/24 08:32:54;;;;;;;6.70;2.47;;;;;;;26.33;44.97;101921.97;5031345;28;20392;-68
2022/07/24 08:35:20;;;;;;;4.10;1.97;;;;;;;26.47;44.36;101925.97;5042274;28;20079;-70
2022/07/24 08:37:46;;;;;;;3.27;2.00;;;;;;;26.38;43.49;101916.38;5037050;28;20034;-69
2022/07/24 08:40:12;;;;;;;2.83;2.30;;;;;;;26.48;43.48;101925.72;5028918;28;20034;-70
2022/07/24 08:42:38;;;;;;;3.25;2.30;;;;;;;26.63;43.16;101922.94;5038398;28;20033;-69
2022/07/24 08:45:05;;;;;;;6.10;2.10;;;;;;;26.85;43.40;101914.28;5040776;28;20084;-71
2022/07/24 08:47:32;;;;;;;;;;;;;;;26.25;44.16;101900.03;5048126;28;20112;-70
2022/07/24 08:49:58;;;;;;;3.30;2.08;;;;;;;26.25;45.57;101902.84;5049899;28;19926;-69
2022/07/24 08:52:24;;;;;;;4.63;2.42;;;;;;;25.81;45.64;101912.69;5037988;28;20041;-69
2022/07/24 08:54:50;;;;;;;;;;;;;;;25.92;45.76;101903.28;5031593;28;20124;-69
2022/07/24 08:57:15;;;;;;;4.97;2.28;;;;;;;26.47;45.41;101904.31;5030931;28;20384;-69
2022/07/24 08:59:41;;;;;;;4.05;2.15;;;;;;;26.81;45.49;101897.13;5030993;28;20047;-69
2022/07/24 09:02:06;;;;;;;2.40;2.20;;;;;;;27.04;44.05;101895.75;5031037;28;20029;-69
2022/07/24 09:04:36;;;;;;;3.43;2.13;;;;;;;27.01;43.73;101902.78;5031256;28;20056;-69
2022/07/24 09:07:04;;;;;;;4.35;2.40;;;;;;;26.86;42.99;101904.72;5033758;28;20472;-71
2022/07/24 09:09:30;;;;;;;4.63;1.90;;;;;;;27.03;43.40;101894.03;5029049;28;20024;-69
2022/07/24 09:12:15;;;;;;;5.67;2.30;;;;;;;27.06;42.48;101882.25;5028081;28;20083;-69
2022/07/24 09:14:47;;;;;;;7.70;3.08;;;;;;;27.30;41.46;101886.19;5030294;28;20024;-69
2022/07/24 09:17:18;;;;;;;4.18;2.63;;;;;;;27.04;42.24;101884.50;5037703;28;20403;-70
2022/07/24 09:20:00;;;;;;;2.80;2.10;;;;;;;27.24;41.18;101895.78;5046094;28;20075;-70
2022/07/24 09:22:34;;;;;;;3.17;2.20;;;;;;;27.41;40.92;101880.28;5037466;28;20039;-69
2022/07/24 09:25:08;;;;;;;2.55;1.75;;;;;;;27.35;40.89;101886.19;5032710;28;20059;-70
2022/07/24 09:27:36;;;;;;;2.65;2.03;;;;;;;27.44;40.75;101891.00;5035044;28;20484;-69
2022/07/24 09:30:02;;;;;;;1.92;1.77;;;;;;;27.47;40.54;101884.78;5038834;28;20037;-70
2022/07/24 09:32:27;;;;;;;5.18;2.67;;;;;;;27.73;40.45;101894.00;5029468;28;20487;-72
2022/07/24 09:34:54;;;;;;;2.70;2.20;;;;;;;27.62;40.75;101893.19;5041525;28;20030;-71
2022/07/24 09:37:20;;;;;;;3.88;2.30;;;;;;;27.73;40.27;101886.41;5029899;28;20032;-74
2022/07/24 09:39:46;;;;;;;2.60;1.80;;;;;;;27.61;41.04;101885.03;5029880;28;20120;-73
2022/07/24 09:42:11;;;;;;;2.92;2.10;;;;;;;27.62;39.87;101881.94;5031682;28;20170;-74
2022/07/24 09:44:38;;;;;;;3.17;2.00;;;;;;;28.05;39.77;101886.03;5044469;28;20044;-74
2022/07/24 09:47:09;;;;;;;10.25;2.10;;;;;;;28.44;39.50;101887.03;5033278;28;20033;-75
2022/07/24 09:49:37;;;;;;;7.60;2.90;;;;;;;28.14;40.01;101887.16;5033300;28;20163;-74
2022/07/24 09:52:14;;;;;;;2.42;1.90;;;;;;;28.32;39.50;101880.88;5036305;28;20033;-73
2022/07/24 09:54:46;;;;;;;3.15;1.83;;;;;;;28.53;39.74;101891.78;5034786;28;20132;-75
2022/07/24 09:57:29;;;;;;;2.15;1.83;;;;;;;28.63;38.79;101873.94;5030723;28;20040;-73
2022/07/24 09:59:54;;;;;;;2.22;1.95;;;;;;;28.74;38.94;101875.56;5030015;28;20042;-73
2022/07/24 10:02:22;;;;;;;5.13;2.20;;;;;;;28.38;39.12;101874.94;5045434;28;20109;-72
2022/07/24 10:04:50;;;;;;;5.20;2.30;;;;;;;28.49;39.23;101873.75;5032101;28;20530;-72
2022/07/24 10:07:18;;;;;;;3.28;1.98;;;;;;;28.69;38.71;101872.75;5035721;28;20021;-73
2022/07/24 10:09:45;;;;;;;4.95;1.98;;;;;;;28.92;38.71;101872.88;5032666;28;20040;-71
2022/07/24 10:12:15;;;;;;;4.80;1.75;;;;;;;28.54;39.68;101867.25;5029676;28;20455;-73
2022/07/24 10:14:43;;;;;;;2.08;1.88;;;;;;;28.54;39.11;101873.72;5032727;28;20045;-71
2022/07/24 10:17:10;;;;;;;2.97;2.20;;;;;;;28.62;39.28;101864.66;5027754;28;20191;-74
2022/07/24 10:19:45;;;;;;;4.03;1.88;;;;;;;29.02;38.38;101857.91;5034102;28;20107;-72
2022/07/24 10:22:14;;;;;;;3.55;2.03;;;;;;;29.15;37.69;101860.88;5028903;28;20071;-73
2022/07/24 10:24:53;;;;;;;5.30;1.90;;;;;;;29.08;37.44;101859.53;5031571;28;20033;-74
2022/07/24 10:27:25;;;;;;;2.90;1.48;;;;;;;29.43;37.41;101862.00;5037833;28;20436;-73
2022/07/24 10:29:53;;;;;;;2.70;1.75;;;;;;;29.11;37.43;101859.78;5029136;28;20030;-72
2022/07/24 10:32:18;;;;;;;1.50;1.40;;;;;;;29.30;36.72;101860.72;5027989;28;20033;-73
2022/07/24 10:35:19;;;;;;;2.40;1.52;;;;;;;29.28;36.95;101854.53;5028062;28;20033;-73
2022/07/24 10:38:12;;;;;;;5.20;2.30;;;;;;;29.52;35.67;101854.56;5039282;28;20159;-72
2022/07/24 10:40:51;;;;;;;4.30;1.75;;;;;;;29.39;35.78;101844.00;5043843;28;20021;-73
2022/07/24 10:43:19;;;;;;;4.10;1.60;;;;;;;29.66;36.19;101852.78;5030074;28;20519;-72
2022/07/24 10:45:46;;;;;;;2.35;1.73;;;;;;;29.71;36.03;101849.88;5034443;28;20040;-72
2022/07/24 10:48:21;;;;;;;3.72;2.20;;;;;;;29.54;36.10;101849.50;5029298;28;20087;-74
2022/07/24 10:51:02;;;;;;;4.35;2.00;;;;;;;29.76;35.20;101847.00;5037103;28;20032;-71
2022/07/24 10:53:29;;;;;;;2.03;1.50;;;;;;;29.68;35.80;101839.19;5031563;28;20119;-73
2022/07/24 10:56:19;;;;;;;4.00;1.77;;;;;;;30.05;35.59;101842.13;5038624;28;20108;-73
2022/07/24 10:59:07;;;;;;;1.52;1.42;;;;;;;30.12;35.38;101839.78;5035061;28;20037;-73
2022/07/24 11:01:45;;;;;;;4.05;1.42;;;;;;;30.42;34.87;101850.69;5035117;28;20435;-71
2022/07/24 11:04:20;;;;;;;1.63;1.52;;;;;;;30.10;35.33;101833.56;5049611;28;20024;-73
2022/07/24 11:06:56;;;;;;;1.70;1.60;;;;;;;30.39;35.63;101839.97;5045339;28;20090;-72
2022/07/24 11:09:24;;;;;;;2.53;1.40;;;;;;;30.32;35.26;101842.34;5031258;28;20082;-73
2022/07/24 11:11:52;;;;;;;3.45;1.70;;;;;;;30.09;36.15;101831.88;5031407;28;20552;-74
2022/07/24 11:14:38;;;;;;;2.83;1.83;;;;;;;30.47;34.67;101819.50;5041556;28;20056;-74
2022/07/24 11:17:41;;;;;;;2.58;1.65;;;;;;;30.57;35.39;101825.00;5029800;28;20042;-73